sensor_id;sensor_type;location;lat;lon;timestamp;P1;durP1;ratioP1;P2;durP2;ratioP2
67352;SDS011;54238;52.278;21.056;2022-08-19T00:02:11;15.30;;;10.00;;
67352;SDS011;54238;52.278;21.056;2022-08-19T00:04:40;20.20;;;10.10;;
67352;SDS011;54238;52.278;21.056;2022-08-19T00:07:10;22.60;;;11.00;;
67352;SDS011;54238;52.278;21.056;2022-08-19T00:09:36;16.90;;;9.60;;
67352;SDS011;54238;52.278;21.056;2022-08-19T00:12:04;16.10;;;10.30;;
67352;SDS011;54238;52.278;21.056;2022-08-19T00:14:37;12.00;;;9.70;;
67352;SDS011;54238;52.278;21.056;2022-08-19T00:17:29;17.70;;;9.40;;
67352;SDS011;54238;52.278;21.056;2022-08-19T00:20:04;15.00;;;11.00;;
67352;SDS011;54238;52.278;21.056;2022-08-19T00:22:35;19.40;;;11.10;;
67352;SDS011;54238;52.278;21.056;2022-08-19T00:25:02;14.20;;;10.20;;
67352;SDS011;54238;52.278;21.056;2022-08-19T00:27:57;16.70;;;10.80;;
67352;SDS011;54238;52.278;21.056;2022-08-19T00:30:26;17.20;;;12.10;;
67352;SDS011;54238;52.278;21.056;2022-08-19T00:33:16;15.90;;;10.70;;
67352;SDS011;54238;52.278;21.056;2022-08-19T00:35:48;16.90;;;11.40;;
67352;SDS011;54238;52.278;21.056;2022-08-19T00:46:00;21.40;;;11.70;;
67352;SDS011;54238;52.278;21.056;2022-08-19T00:48:31;16.20;;;11.40;;
67352;SDS011;54238;52.278;21.056;2022-08-19T00:51:03;16.90;;;11.90;;
67352;SDS011;54238;52.278;21.056;2022-08-19T00:53:33;12.70;;;10.70;;
67352;SDS011;54238;52.278;21.056;2022-08-19T00:56:05;19.90;;;12.30;;
67352;SDS011;54238;52.278;21.056;2022-08-19T00:58:34;16.90;;;12.10;;
67352;SDS011;54238;52.278;21.056;2022-08-19T01:01:08;15.40;;;11.60;;
67352;SDS011;54238;52.278;21.056;2022-08-19T01:03:39;16.10;;;11.70;;
67352;SDS011;54238;52.278;21.056;2022-08-19T01:06:14;17.10;;;11.50;;
67352;SDS011;54238;52.278;21.056;2022-08-19T01:08:44;20.00;;;10.90;;
67352;SDS011;54238;52.278;21.056;2022-08-19T01:11:12;19.30;;;12.70;;
67352;SDS011;54238;52.278;21.056;2022-08-19T01:13:44;18.70;;;12.30;;
67352;SDS011;54238;52.278;21.056;2022-08-19T01:16:17;15.20;;;11.00;;
67352;SDS011;54238;52.278;21.056;2022-08-19T01:18:49;18.70;;;10.90;;
67352;SDS011;54238;52.278;21.056;2022-08-19T01:24:04;16.00;;;11.40;;
67352;SDS011;54238;52.278;21.056;2022-08-19T01:26:40;20.30;;;12.60;;
67352;SDS011;54238;52.278;21.056;2022-08-19T01:29:12;20.20;;;11.60;;
67352;SDS011;54238;52.278;21.056;2022-08-19T01:31:41;16.10;;;11.30;;
67352;SDS011;54238;52.278;21.056;2022-08-19T01:34:08;18.80;;;11.20;;
67352;SDS011;54238;52.278;21.056;2022-08-19T01:36:42;16.80;;;11.80;;
67352;SDS011;54238;52.278;21.056;2022-08-19T01:39:26;20.40;;;11.80;;
67352;SDS011;54238;52.278;21.056;2022-08-19T01:41:54;18.20;;;11.90;;
67352;SDS011;54238;52.278;21.056;2022-08-19T01:44:29;21.70;;;11.60;;
67352;SDS011;54238;52.278;21.056;2022-08-19T01:46:56;23.10;;;12.30;;
67352;SDS011;54238;52.278;21.056;2022-08-19T01:49:28;14.50;;;10.90;;
67352;SDS011;54238;52.278;21.056;2022-08-19T01:51:55;18.90;;;11.70;;
67352;SDS011;54238;52.278;21.056;2022-08-19T01:54:23;13.70;;;11.10;;
67352;SDS011;54238;52.278;21.056;2022-08-19T01:56:55;19.80;;;11.50;;
67352;SDS011;54238;52.278;21.056;2022-08-19T01:59:29;16.10;;;11.80;;
67352;SDS011;54238;52.278;21.056;2022-08-19T02:02:02;16.10;;;11.70;;
67352;SDS011;54238;52.278;21.056;2022-08-19T02:04:40;14.80;;;11.40;;
67352;SDS011;54238;52.278;21.056;2022-08-19T02:07:08;15.60;;;12.00;;
67352;SDS011;54238;52.278;21.056;2022-08-19T02:09:37;17.40;;;11.90;;
67352;SDS011;54238;52.278;21.056;2022-08-19T02:12:11;16.10;;;11.80;;
67352;SDS011;54238;52.278;21.056;2022-08-19T02:14:40;17.70;;;12.50;;
67352;SDS011;54238;52.278;21.056;2022-08-19T02:17:10;17.80;;;11.80;;
67352;SDS011;54238;52.278;21.056;2022-08-19T02:19:40;18.40;;;12.50;;
67352;SDS011;54238;52.278;21.056;2022-08-19T02:22:09;22.90;;;11.60;;
67352;SDS011;54238;52.278;21.056;2022-08-19T02:24:38;18.90;;;12.30;;
67352;SDS011;54238;52.278;21.056;2022-08-19T02:27:05;13.50;;;11.40;;
67352;SDS011;54238;52.278;21.056;2022-08-19T02:29:32;17.40;;;11.90;;
67352;SDS011;54238;52.278;21.056;2022-08-19T02:32:02;21.00;;;12.30;;
67352;SDS011;54238;52.278;21.056;2022-08-19T02:34:34;18.80;;;12.40;;
67352;SDS011;54238;52.278;21.056;2022-08-19T02:37:01;14.10;;;11.20;;
67352;SDS011;54238;52.278;21.056;2022-08-19T02:39:30;18.30;;;12.50;;
67352;SDS011;54238;52.278;21.056;2022-08-19T02:42:00;14.40;;;12.30;;
67352;SDS011;54238;52.278;21.056;2022-08-19T02:44:29;15.20;;;11.70;;
67352;SDS011;54238;52.278;21.056;2022-08-19T02:46:56;17.80;;;11.70;;
67352;SDS011;54238;52.278;21.056;2022-08-19T02:49:30;14.50;;;11.20;;
67352;SDS011;54238;52.278;21.056;2022-08-19T02:51:57;19.70;;;12.70;;
67352;SDS011;54238;52.278;21.056;2022-08-19T02:54:26;17.80;;;12.10;;
67352;SDS011;54238;52.278;21.056;2022-08-19T02:56:54;17.70;;;12.00;;
67352;SDS011;54238;52.278;21.056;2022-08-19T02:59:31;15.90;;;12.50;;
67352;SDS011;54238;52.278;21.056;2022-08-19T03:01:59;19.80;;;12.80;;
67352;SDS011;54238;52.278;21.056;2022-08-19T03:04:29;19.60;;;12.40;;
67352;SDS011;54238;52.278;21.056;2022-08-19T03:06:58;15.90;;;11.70;;
67352;SDS011;54238;52.278;21.056;2022-08-19T03:09:29;17.60;;;12.10;;
67352;SDS011;54238;52.278;21.056;2022-08-19T03:11:56;17.50;;;12.50;;
67352;SDS011;54238;52.278;21.056;2022-08-19T03:14:25;16.20;;;12.80;;
67352;SDS011;54238;52.278;21.056;2022-08-19T03:17:02;19.00;;;13.30;;
67352;SDS011;54238;52.278;21.056;2022-08-19T03:19:32;18.60;;;12.80;;
67352;SDS011;54238;52.278;21.056;2022-08-19T03:22:04;20.70;;;11.60;;
67352;SDS011;54238;52.278;21.056;2022-08-19T03:24:32;21.70;;;12.70;;
67352;SDS011;54238;52.278;21.056;2022-08-19T03:26:59;18.30;;;12.20;;
67352;SDS011;54238;52.278;21.056;2022-08-19T03:29:31;24.50;;;12.40;;
67352;SDS011;54238;52.278;21.056;2022-08-19T03:32:21;15.80;;;12.10;;
67352;SDS011;54238;52.278;21.056;2022-08-19T03:34:49;21.40;;;11.90;;
67352;SDS011;54238;52.278;21.056;2022-08-19T03:37:36;20.60;;;12.40;;
67352;SDS011;54238;52.278;21.056;2022-08-19T03:40:06;18.40;;;11.70;;
67352;SDS011;54238;52.278;21.056;2022-08-19T03:42:38;15.40;;;12.10;;
67352;SDS011;54238;52.278;21.056;2022-08-19T03:45:09;14.00;;;11.00;;
67352;SDS011;54238;52.278;21.056;2022-08-19T03:47:37;17.50;;;12.40;;
67352;SDS011;54238;52.278;21.056;2022-08-19T03:50:05;18.50;;;12.40;;
67352;SDS011;54238;52.278;21.056;2022-08-19T03:52:32;17.90;;;12.80;;
67352;SDS011;54238;52.278;21.056;2022-08-19T03:55:19;17.50;;;11.90;;
67352;SDS011;54238;52.278;21.056;2022-08-19T03:58:13;22.30;;;12.90;;
67352;SDS011;54238;52.278;21.056;2022-08-19T04:00:45;16.50;;;12.30;;
67352;SDS011;54238;52.278;21.056;2022-08-19T04:03:15;22.00;;;12.20;;
67352;SDS011;54238;52.278;21.056;2022-08-19T04:05:42;18.70;;;12.00;;
67352;SDS011;54238;52.278;21.056;2022-08-19T04:08:09;14.60;;;10.80;;
67352;SDS011;54238;52.278;21.056;2022-08-19T04:10:41;17.10;;;12.30;;
67352;SDS011;54238;52.278;21.056;2022-08-19T04:13:08;13.60;;;11.60;;
67352;SDS011;54238;52.278;21.056;2022-08-19T04:15:42;18.00;;;12.70;;
67352;SDS011;54238;52.278;21.056;2022-08-19T04:18:17;22.70;;;12.60;;
67352;SDS011;54238;52.278;21.056;2022-08-19T04:20:46;17.60;;;12.00;;
67352;SDS011;54238;52.278;21.056;2022-08-19T04:23:14;20.20;;;12.90;;
67352;SDS011;54238;52.278;21.056;2022-08-19T04:28:20;16.50;;;11.90;;
67352;SDS011;54238;52.278;21.056;2022-08-19T04:30:55;20.40;;;11.60;;
67352;SDS011;54238;52.278;21.056;2022-08-19T04:33:26;18.10;;;11.30;;
67352;SDS011;54238;52.278;21.056;2022-08-19T04:36:00;16.90;;;11.80;;
67352;SDS011;54238;52.278;21.056;2022-08-19T04:38:34;19.20;;;11.40;;
67352;SDS011;54238;52.278;21.056;2022-08-19T04:41:04;18.20;;;10.90;;
67352;SDS011;54238;52.278;21.056;2022-08-19T04:43:52;14.30;;;10.80;;
67352;SDS011;54238;52.278;21.056;2022-08-19T04:46:22;17.50;;;12.30;;
67352;SDS011;54238;52.278;21.056;2022-08-19T04:48:51;18.10;;;12.30;;
67352;SDS011;54238;52.278;21.056;2022-08-19T04:51:23;16.80;;;11.50;;
67352;SDS011;54238;52.278;21.056;2022-08-19T04:53:53;15.70;;;11.10;;
67352;SDS011;54238;52.278;21.056;2022-08-19T04:56:23;19.00;;;11.40;;
67352;SDS011;54238;52.278;21.056;2022-08-19T04:58:59;16.50;;;11.40;;
67352;SDS011;54238;52.278;21.056;2022-08-19T05:01:32;16.90;;;11.30;;
67352;SDS011;54238;52.278;21.056;2022-08-19T05:04:20;21.80;;;12.00;;
67352;SDS011;54238;52.278;21.056;2022-08-19T05:06:50;12.90;;;11.00;;
67352;SDS011;54238;52.278;21.056;2022-08-19T05:09:20;17.10;;;10.80;;
67352;SDS011;54238;52.278;21.056;2022-08-19T05:11:49;18.70;;;12.20;;
67352;SDS011;54238;52.278;21.056;2022-08-19T05:14:22;18.70;;;11.30;;
67352;SDS011;54238;52.278;21.056;2022-08-19T05:16:52;17.40;;;9.90;;
67352;SDS011;54238;52.278;21.056;2022-08-19T05:19:18;13.00;;;10.30;;
67352;SDS011;54238;52.278;21.056;2022-08-19T05:22:06;13.40;;;11.30;;
67352;SDS011;54238;52.278;21.056;2022-08-19T05:24:52;17.90;;;11.10;;
67352;SDS011;54238;52.278;21.056;2022-08-19T05:27:22;17.50;;;11.70;;
67352;SDS011;54238;52.278;21.056;2022-08-19T05:29:51;17.10;;;10.90;;
67352;SDS011;54238;52.278;21.056;2022-08-19T05:32:23;21.20;;;14.40;;
67352;SDS011;54238;52.278;21.056;2022-08-19T05:34:52;24.80;;;11.40;;
67352;SDS011;54238;52.278;21.056;2022-08-19T05:37:26;18.10;;;10.70;;
67352;SDS011;54238;52.278;21.056;2022-08-19T05:39:57;18.10;;;11.00;;
67352;SDS011;54238;52.278;21.056;2022-08-19T05:42:24;18.00;;;10.30;;
67352;SDS011;54238;52.278;21.056;2022-08-19T05:44:53;22.00;;;10.40;;
67352;SDS011;54238;52.278;21.056;2022-08-19T05:47:25;23.30;;;10.00;;
67352;SDS011;54238;52.278;21.056;2022-08-19T05:49:57;15.30;;;9.40;;
67352;SDS011;54238;52.278;21.056;2022-08-19T05:52:24;17.10;;;9.90;;
67352;SDS011;54238;52.278;21.056;2022-08-19T05:54:53;14.80;;;9.90;;
67352;SDS011;54238;52.278;21.056;2022-08-19T05:57:25;17.70;;;8.90;;
67352;SDS011;54238;52.278;21.056;2022-08-19T05:59:57;15.40;;;10.50;;
67352;SDS011;54238;52.278;21.056;2022-08-19T06:02:29;17.80;;;10.00;;
67352;SDS011;54238;52.278;21.056;2022-08-19T06:05:05;12.30;;;9.40;;
67352;SDS011;54238;52.278;21.056;2022-08-19T06:07:36;13.60;;;10.10;;
67352;SDS011;54238;52.278;21.056;2022-08-19T06:10:10;15.30;;;8.90;;
67352;SDS011;54238;52.278;21.056;2022-08-19T06:12:42;16.50;;;9.90;;
67352;SDS011;54238;52.278;21.056;2022-08-19T06:15:12;16.30;;;10.50;;
67352;SDS011;54238;52.278;21.056;2022-08-19T06:17:43;14.90;;;9.90;;
67352;SDS011;54238;52.278;21.056;2022-08-19T06:20:14;17.30;;;9.40;;
67352;SDS011;54238;52.278;21.056;2022-08-19T06:22:44;18.90;;;10.00;;
67352;SDS011;54238;52.278;21.056;2022-08-19T06:25:13;16.50;;;9.80;;
67352;SDS011;54238;52.278;21.056;2022-08-19T06:27:44;13.80;;;8.80;;
67352;SDS011;54238;52.278;21.056;2022-08-19T06:30:12;15.40;;;9.30;;
67352;SDS011;54238;52.278;21.056;2022-08-19T06:32:47;16.00;;;9.60;;
67352;SDS011;54238;52.278;21.056;2022-08-19T06:35:19;14.50;;;8.80;;
67352;SDS011;54238;52.278;21.056;2022-08-19T06:37:48;21.40;;;9.30;;
67352;SDS011;54238;52.278;21.056;2022-08-19T06:40:15;17.30;;;11.40;;
67352;SDS011;54238;52.278;21.056;2022-08-19T06:42:42;16.30;;;11.50;;
67352;SDS011;54238;52.278;21.056;2022-08-19T06:45:11;12.10;;;10.10;;
67352;SDS011;54238;52.278;21.056;2022-08-19T06:48:00;15.00;;;8.90;;
67352;SDS011;54238;52.278;21.056;2022-08-19T06:50:27;13.80;;;9.00;;
67352;SDS011;54238;52.278;21.056;2022-08-19T06:52:57;14.00;;;9.40;;
67352;SDS011;54238;52.278;21.056;2022-08-19T06:55:31;12.30;;;9.40;;
67352;SDS011;54238;52.278;21.056;2022-08-19T06:58:04;17.90;;;9.20;;
67352;SDS011;54238;52.278;21.056;2022-08-19T07:00:39;16.50;;;8.60;;
67352;SDS011;54238;52.278;21.056;2022-08-19T07:03:11;13.30;;;8.10;;
67352;SDS011;54238;52.278;21.056;2022-08-19T07:05:40;14.50;;;8.70;;
67352;SDS011;54238;52.278;21.056;2022-08-19T07:08:08;12.80;;;8.30;;
67352;SDS011;54238;52.278;21.056;2022-08-19T07:10:42;13.40;;;8.50;;
67352;SDS011;54238;52.278;21.056;2022-08-19T07:13:23;14.70;;;8.90;;
67352;SDS011;54238;52.278;21.056;2022-08-19T07:15:53;13.20;;;7.10;;
67352;SDS011;54238;52.278;21.056;2022-08-19T07:18:25;12.60;;;9.60;;
67352;SDS011;54238;52.278;21.056;2022-08-19T07:21:06;12.20;;;8.20;;
67352;SDS011;54238;52.278;21.056;2022-08-19T07:23:34;8.90;;;7.60;;
67352;SDS011;54238;52.278;21.056;2022-08-19T07:26:10;13.80;;;8.20;;
67352;SDS011;54238;52.278;21.056;2022-08-19T07:31:22;13.50;;;8.40;;
67352;SDS011;54238;52.278;21.056;2022-08-19T07:33:52;13.80;;;7.70;;
67352;SDS011;54238;52.278;21.056;2022-08-19T07:36:27;19.20;;;8.70;;
67352;SDS011;54238;52.278;21.056;2022-08-19T07:39:01;11.10;;;8.30;;
67352;SDS011;54238;52.278;21.056;2022-08-19T07:41:36;14.40;;;8.60;;
67352;SDS011;54238;52.278;21.056;2022-08-19T07:44:10;12.90;;;8.60;;
67352;SDS011;54238;52.278;21.056;2022-08-19T07:46:52;12.40;;;8.60;;
67352;SDS011;54238;52.278;21.056;2022-08-19T07:49:21;14.70;;;8.80;;
67352;SDS011;54238;52.278;21.056;2022-08-19T07:51:57;14.00;;;9.30;;
67352;SDS011;54238;52.278;21.056;2022-08-19T07:54:33;16.10;;;9.00;;
67352;SDS011;54238;52.278;21.056;2022-08-19T07:57:04;17.30;;;9.50;;
67352;SDS011;54238;52.278;21.056;2022-08-19T07:59:35;9.50;;;8.20;;
67352;SDS011;54238;52.278;21.056;2022-08-19T08:02:11;14.80;;;9.10;;
67352;SDS011;54238;52.278;21.056;2022-08-19T08:04:40;13.60;;;8.70;;
67352;SDS011;54238;52.278;21.056;2022-08-19T08:07:26;17.30;;;9.10;;
67352;SDS011;54238;52.278;21.056;2022-08-19T08:10:14;11.70;;;7.80;;
67352;SDS011;54238;52.278;21.056;2022-08-19T08:12:43;19.30;;;8.20;;
67352;SDS011;54238;52.278;21.056;2022-08-19T08:15:18;20.60;;;8.90;;
67352;SDS011;54238;52.278;21.056;2022-08-19T08:17:46;13.60;;;8.40;;
67352;SDS011;54238;52.278;21.056;2022-08-19T08:20:17;18.00;;;8.10;;
67352;SDS011;54238;52.278;21.056;2022-08-19T08:22:48;14.20;;;7.30;;
67352;SDS011;54238;52.278;21.056;2022-08-19T08:25:34;18.30;;;8.40;;
67352;SDS011;54238;52.278;21.056;2022-08-19T08:28:05;14.90;;;7.70;;
67352;SDS011;54238;52.278;21.056;2022-08-19T08:30:35;16.90;;;8.00;;
67352;SDS011;54238;52.278;21.056;2022-08-19T08:33:06;15.10;;;8.10;;
67352;SDS011;54238;52.278;21.056;2022-08-19T08:35:33;19.20;;;8.30;;
67352;SDS011;54238;52.278;21.056;2022-08-19T08:38:00;10.70;;;7.10;;
67352;SDS011;54238;52.278;21.056;2022-08-19T08:40:38;14.90;;;9.00;;
67352;SDS011;54238;52.278;21.056;2022-08-19T08:45:56;11.40;;;7.70;;
67352;SDS011;54238;52.278;21.056;2022-08-19T08:51:40;13.50;;;8.20;;
67352;SDS011;54238;52.278;21.056;2022-08-19T08:54:20;24.90;;;9.30;;
67352;SDS011;54238;52.278;21.056;2022-08-19T08:56:53;12.80;;;7.50;;
67352;SDS011;54238;52.278;21.056;2022-08-19T08:59:31;16.00;;;7.60;;
67352;SDS011;54238;52.278;21.056;2022-08-19T09:02:05;17.30;;;7.70;;
67352;SDS011;54238;52.278;21.056;2022-08-19T09:04:36;14.60;;;7.60;;
67352;SDS011;54238;52.278;21.056;2022-08-19T09:13:05;15.30;;;7.20;;
67352;SDS011;54238;52.278;21.056;2022-08-19T09:15:40;15.90;;;7.20;;
67352;SDS011;54238;52.278;21.056;2022-08-19T09:18:14;15.00;;;7.50;;
67352;SDS011;54238;52.278;21.056;2022-08-19T09:20:48;17.40;;;7.20;;
67352;SDS011;54238;52.278;21.056;2022-08-19T09:23:15;13.40;;;8.00;;
67352;SDS011;54238;52.278;21.056;2022-08-19T09:25:42;16.20;;;7.80;;
67352;SDS011;54238;52.278;21.056;2022-08-19T09:28:12;12.00;;;7.10;;
67352;SDS011;54238;52.278;21.056;2022-08-19T09:30:41;18.00;;;7.90;;
67352;SDS011;54238;52.278;21.056;2022-08-19T09:33:13;11.20;;;7.10;;
67352;SDS011;54238;52.278;21.056;2022-08-19T09:35:42;9.90;;;7.40;;
67352;SDS011;54238;52.278;21.056;2022-08-19T09:38:11;13.00;;;7.80;;
67352;SDS011;54238;52.278;21.056;2022-08-19T09:40:41;10.70;;;7.30;;
67352;SDS011;54238;52.278;21.056;2022-08-19T09:43:10;11.10;;;7.40;;
67352;SDS011;54238;52.278;21.056;2022-08-19T09:45:40;12.30;;;7.30;;
67352;SDS011;54238;52.278;21.056;2022-08-19T09:48:11;10.40;;;6.70;;
67352;SDS011;54238;52.278;21.056;2022-08-19T09:50:41;15.30;;;7.10;;
67352;SDS011;54238;52.278;21.056;2022-08-19T09:53:10;13.70;;;7.60;;
67352;SDS011;54238;52.278;21.056;2022-08-19T09:55:43;13.50;;;6.20;;
67352;SDS011;54238;52.278;21.056;2022-08-19T09:58:13;12.50;;;6.80;;
67352;SDS011;54238;52.278;21.056;2022-08-19T10:00:40;11.10;;;6.70;;
67352;SDS011;54238;52.278;21.056;2022-08-19T10:03:09;15.50;;;7.20;;
67352;SDS011;54238;52.278;21.056;2022-08-19T10:05:38;13.70;;;7.00;;
67352;SDS011;54238;52.278;21.056;2022-08-19T10:08:17;12.10;;;6.70;;
67352;SDS011;54238;52.278;21.056;2022-08-19T10:10:48;13.50;;;6.20;;
67352;SDS011;54238;52.278;21.056;2022-08-19T10:13:26;11.60;;;6.20;;
67352;SDS011;54238;52.278;21.056;2022-08-19T10:16:04;9.40;;;7.00;;
67352;SDS011;54238;52.278;21.056;2022-08-19T10:18:36;14.30;;;6.10;;
67352;SDS011;54238;52.278;21.056;2022-08-19T10:23:49;12.00;;;6.60;;
67352;SDS011;54238;52.278;21.056;2022-08-19T10:26:24;10.70;;;6.00;;
67352;SDS011;54238;52.278;21.056;2022-08-19T10:28:56;13.00;;;6.90;;
67352;SDS011;54238;52.278;21.056;2022-08-19T10:31:30;10.70;;;7.80;;
67352;SDS011;54238;52.278;21.056;2022-08-19T10:34:01;13.40;;;7.30;;
67352;SDS011;54238;52.278;21.056;2022-08-19T10:36:33;11.60;;;6.50;;
67352;SDS011;54238;52.278;21.056;2022-08-19T10:39:06;15.90;;;7.00;;
67352;SDS011;54238;52.278;21.056;2022-08-19T10:41:38;7.60;;;6.00;;
67352;SDS011;54238;52.278;21.056;2022-08-19T10:44:26;11.80;;;5.90;;
67352;SDS011;54238;52.278;21.056;2022-08-19T10:47:29;11.80;;;6.40;;
67352;SDS011;54238;52.278;21.056;2022-08-19T10:49:57;13.80;;;6.10;;
67352;SDS011;54238;52.278;21.056;2022-08-19T10:52:44;10.80;;;6.10;;
67352;SDS011;54238;52.278;21.056;2022-08-19T10:55:53;18.10;;;5.60;;
67352;SDS011;54238;52.278;21.056;2022-08-19T10:58:38;12.00;;;6.00;;
67352;SDS011;54238;52.278;21.056;2022-08-19T11:01:08;10.90;;;5.90;;
67352;SDS011;54238;52.278;21.056;2022-08-19T11:03:41;13.00;;;5.30;;
67352;SDS011;54238;52.278;21.056;2022-08-19T11:06:13;13.60;;;5.60;;
67352;SDS011;54238;52.278;21.056;2022-08-19T11:08:44;11.20;;;6.00;;
67352;SDS011;54238;52.278;21.056;2022-08-19T11:11:19;10.40;;;4.80;;
67352;SDS011;54238;52.278;21.056;2022-08-19T11:13:48;8.80;;;5.70;;
67352;SDS011;54238;52.278;21.056;2022-08-19T11:16:21;9.30;;;5.90;;
67352;SDS011;54238;52.278;21.056;2022-08-19T11:18:56;7.30;;;5.00;;
67352;SDS011;54238;52.278;21.056;2022-08-19T11:21:33;14.30;;;5.80;;
67352;SDS011;54238;52.278;21.056;2022-08-19T11:24:17;12.00;;;5.70;;
67352;SDS011;54238;52.278;21.056;2022-08-19T11:26:58;18.00;;;5.50;;
67352;SDS011;54238;52.278;21.056;2022-08-19T11:29:33;19.90;;;5.50;;
67352;SDS011;54238;52.278;21.056;2022-08-19T11:32:09;12.00;;;5.80;;
67352;SDS011;54238;52.278;21.056;2022-08-19T11:34:37;8.40;;;4.70;;
67352;SDS011;54238;52.278;21.056;2022-08-19T11:37:05;11.40;;;5.50;;
67352;SDS011;54238;52.278;21.056;2022-08-19T11:39:33;8.80;;;5.20;;
67352;SDS011;54238;52.278;21.056;2022-08-19T11:42:05;15.50;;;5.40;;
67352;SDS011;54238;52.278;21.056;2022-08-19T11:44:53;10.60;;;5.30;;
67352;SDS011;54238;52.278;21.056;2022-08-19T11:47:23;11.70;;;5.40;;
67352;SDS011;54238;52.278;21.056;2022-08-19T11:49:54;13.00;;;6.00;;
67352;SDS011;54238;52.278;21.056;2022-08-19T11:52:24;9.00;;;4.80;;
67352;SDS011;54238;52.278;21.056;2022-08-19T11:54:53;10.70;;;5.70;;
67352;SDS011;54238;52.278;21.056;2022-08-19T11:57:23;11.00;;;5.30;;
67352;SDS011;54238;52.278;21.056;2022-08-19T11:59:52;8.70;;;5.20;;
67352;SDS011;54238;52.278;21.056;2022-08-19T12:02:24;7.80;;;5.00;;
67352;SDS011;54238;52.278;21.056;2022-08-19T12:04:55;14.80;;;5.60;;
67352;SDS011;54238;52.278;21.056;2022-08-19T12:07:25;10.40;;;5.00;;
67352;SDS011;54238;52.278;21.056;2022-08-19T12:09:58;12.80;;;5.30;;
67352;SDS011;54238;52.278;21.056;2022-08-19T12:12:29;11.50;;;4.80;;
67352;SDS011;54238;52.278;21.056;2022-08-19T12:14:55;15.00;;;6.10;;
67352;SDS011;54238;52.278;21.056;2022-08-19T12:17:27;14.80;;;5.70;;
67352;SDS011;54238;52.278;21.056;2022-08-19T12:19:59;13.00;;;5.60;;
67352;SDS011;54238;52.278;21.056;2022-08-19T12:22:26;8.30;;;4.60;;
67352;SDS011;54238;52.278;21.056;2022-08-19T12:24:58;13.00;;;5.30;;
67352;SDS011;54238;52.278;21.056;2022-08-19T12:27:28;11.70;;;5.10;;
67352;SDS011;54238;52.278;21.056;2022-08-19T12:29:57;12.70;;;5.00;;
67352;SDS011;54238;52.278;21.056;2022-08-19T12:32:27;8.40;;;5.00;;
67352;SDS011;54238;52.278;21.056;2022-08-19T12:34:58;8.10;;;4.20;;
67352;SDS011;54238;52.278;21.056;2022-08-19T12:37:27;10.00;;;4.90;;
67352;SDS011;54238;52.278;21.056;2022-08-19T12:39:57;7.80;;;4.70;;
67352;SDS011;54238;52.278;21.056;2022-08-19T12:42:25;9.30;;;4.80;;
67352;SDS011;54238;52.278;21.056;2022-08-19T12:44:51;8.30;;;4.40;;
67352;SDS011;54238;52.278;21.056;2022-08-19T12:47:26;7.90;;;4.80;;
67352;SDS011;54238;52.278;21.056;2022-08-19T12:49:58;11.90;;;5.10;;
67352;SDS011;54238;52.278;21.056;2022-08-19T12:52:25;8.30;;;5.30;;
67352;SDS011;54238;52.278;21.056;2022-08-19T12:54:57;7.40;;;5.20;;
67352;SDS011;54238;52.278;21.056;2022-08-19T12:57:28;6.90;;;4.90;;
67352;SDS011;54238;52.278;21.056;2022-08-19T13:00:22;10.30;;;5.30;;
67352;SDS011;54238;52.278;21.056;2022-08-19T13:02:51;13.30;;;4.70;;
67352;SDS011;54238;52.278;21.056;2022-08-19T13:05:26;11.00;;;4.60;;
67352;SDS011;54238;52.278;21.056;2022-08-19T13:07:58;9.50;;;5.00;;
67352;SDS011;54238;52.278;21.056;2022-08-19T13:10:33;13.20;;;5.00;;
67352;SDS011;54238;52.278;21.056;2022-08-19T13:13:05;13.20;;;4.70;;
67352;SDS011;54238;52.278;21.056;2022-08-19T13:15:40;9.80;;;4.90;;
67352;SDS011;54238;52.278;21.056;2022-08-19T13:18:12;8.00;;;4.70;;
67352;SDS011;54238;52.278;21.056;2022-08-19T13:20:40;10.40;;;4.60;;
67352;SDS011;54238;52.278;21.056;2022-08-19T13:23:08;11.10;;;4.50;;
67352;SDS011;54238;52.278;21.056;2022-08-19T13:25:38;10.70;;;4.60;;
67352;SDS011;54238;52.278;21.056;2022-08-19T13:28:10;8.70;;;4.50;;
67352;SDS011;54238;52.278;21.056;2022-08-19T13:30:39;6.00;;;4.40;;
67352;SDS011;54238;52.278;21.056;2022-08-19T13:33:25;9.80;;;4.20;;
67352;SDS011;54238;52.278;21.056;2022-08-19T13:35:57;9.60;;;4.50;;
67352;SDS011;54238;52.278;21.056;2022-08-19T13:38:30;9.70;;;4.40;;
67352;SDS011;54238;52.278;21.056;2022-08-19T13:41:05;8.20;;;4.40;;
67352;SDS011;54238;52.278;21.056;2022-08-19T13:43:34;10.70;;;4.20;;
67352;SDS011;54238;52.278;21.056;2022-08-19T13:46:11;11.20;;;4.80;;
67352;SDS011;54238;52.278;21.056;2022-08-19T13:48:40;9.40;;;5.40;;
67352;SDS011;54238;52.278;21.056;2022-08-19T13:51:09;9.80;;;4.90;;
67352;SDS011;54238;52.278;21.056;2022-08-19T13:53:42;10.60;;;4.80;;
67352;SDS011;54238;52.278;21.056;2022-08-19T13:56:13;11.30;;;5.10;;
67352;SDS011;54238;52.278;21.056;2022-08-19T13:58:48;8.50;;;4.60;;
67352;SDS011;54238;52.278;21.056;2022-08-19T14:01:19;14.70;;;4.50;;
67352;SDS011;54238;52.278;21.056;2022-08-19T14:03:50;13.60;;;4.50;;
67352;SDS011;54238;52.278;21.056;2022-08-19T14:06:18;9.60;;;4.30;;
67352;SDS011;54238;52.278;21.056;2022-08-19T14:08:49;12.90;;;4.50;;
67352;SDS011;54238;52.278;21.056;2022-08-19T14:11:19;7.10;;;4.60;;
67352;SDS011;54238;52.278;21.056;2022-08-19T14:13:49;12.20;;;4.10;;
67352;SDS011;54238;52.278;21.056;2022-08-19T14:16:19;7.50;;;4.40;;
67352;SDS011;54238;52.278;21.056;2022-08-19T14:21:21;6.50;;;4.00;;
67352;SDS011;54238;52.278;21.056;2022-08-19T14:23:53;14.20;;;4.40;;
67352;SDS011;54238;52.278;21.056;2022-08-19T14:26:25;7.70;;;3.90;;
67352;SDS011;54238;52.278;21.056;2022-08-19T14:28:55;8.40;;;4.50;;
67352;SDS011;54238;52.278;21.056;2022-08-19T14:31:23;8.20;;;4.10;;
67352;SDS011;54238;52.278;21.056;2022-08-19T14:33:56;8.70;;;4.20;;
67352;SDS011;54238;52.278;21.056;2022-08-19T14:36:28;9.70;;;4.40;;
67352;SDS011;54238;52.278;21.056;2022-08-19T14:38:57;7.70;;;4.40;;
67352;SDS011;54238;52.278;21.056;2022-08-19T14:41:27;8.80;;;4.30;;
67352;SDS011;54238;52.278;21.056;2022-08-19T14:44:02;12.60;;;4.40;;
67352;SDS011;54238;52.278;21.056;2022-08-19T14:46:29;9.80;;;4.70;;
67352;SDS011;54238;52.278;21.056;2022-08-19T14:49:00;9.90;;;4.80;;
67352;SDS011;54238;52.278;21.056;2022-08-19T14:51:30;6.60;;;4.10;;
67352;SDS011;54238;52.278;21.056;2022-08-19T14:54:04;5.90;;;4.40;;
67352;SDS011;54238;52.278;21.056;2022-08-19T14:56:34;16.20;;;5.10;;
67352;SDS011;54238;52.278;21.056;2022-08-19T14:59:05;8.80;;;4.50;;
67352;SDS011;54238;52.278;21.056;2022-08-19T15:01:34;7.90;;;4.70;;
67352;SDS011;54238;52.278;21.056;2022-08-19T15:04:06;5.70;;;4.20;;
67352;SDS011;54238;52.278;21.056;2022-08-19T15:06:34;7.20;;;3.90;;
67352;SDS011;54238;52.278;21.056;2022-08-19T15:09:06;6.60;;;4.20;;
67352;SDS011;54238;52.278;21.056;2022-08-19T15:11:33;15.00;;;4.40;;
67352;SDS011;54238;52.278;21.056;2022-08-19T15:14:06;9.70;;;4.30;;
67352;SDS011;54238;52.278;21.056;2022-08-19T15:16:35;7.30;;;4.20;;
67352;SDS011;54238;52.278;21.056;2022-08-19T15:19:07;9.50;;;4.30;;
67352;SDS011;54238;52.278;21.056;2022-08-19T15:21:40;6.10;;;4.40;;